Time;durP1;ratioP1;P1;durP2;ratioP2;P2;SDS_P1;SDS_P2;PMS_P1;PMS_P2;Temp;Humidity;BMP_temperature;BMP_pressure;BME280_temperature;BME280_humidity;BME280_pressure;Samples;Min_cycle;Max_cycle;Signal;HPM_P1;HPM_P2
2023/01/09 00:01:20;;;;;;;3.28;1.08;;;6.90;99.90;;;;;;4948170;28;20050;-67
2023/01/09 00:03:46;;;;;;;3.25;1.30;;;6.90;99.90;;;;;;4932372;29;20078;-66
2023/01/09 00:06:12;;;;;;;4.43;1.67;;;7.00;99.90;;;;;;4931906;29;20134;-66
2023/01/09 00:08:37;;;;;;;3.72;1.50;;;7.00;99.90;;;;;;4947823;29;20051;-66
2023/01/09 00:11:04;;;;;;;2.05;1.40;;;6.90;99.90;;;;;;4928339;29;20074;-67
2023/01/09 00:13:30;;;;;;;4.13;1.50;;;6.90;99.90;;;;;;4947162;29;20051;-67
2023/01/09 00:15:56;;;;;;;4.20;1.40;;;6.90;99.90;;;;;;4947060;28;20071;-66
2023/01/09 00:18:22;;;;;;;2.97;1.40;;;6.90;99.90;;;;;;4980205;28;20043;-67
2023/01/09 00:20:47;;;;;;;4.85;2.35;;;6.90;99.90;;;;;;4946361;28;20478;-67
2023/01/09 00:23:13;;;;;;;2.58;1.45;;;7.00;99.90;;;;;;4933408;29;20047;-67
2023/01/09 00:25:39;;;;;;;3.58;1.27;;;7.00;99.90;;;;;;4963265;28;20862;-66
2023/01/09 00:28:05;;;;;;;2.60;1.45;;;6.90;99.90;;;;;;4949829;28;20171;-66
2023/01/09 00:30:31;;;;;;;2.90;1.50;;;6.90;99.90;;;;;;4920383;28;20102;-67
2023/01/09 00:32:57;;;;;;;2.75;1.30;;;7.00;99.90;;;;;;4950354;29;20039;-66
2023/01/09 00:35:24;;;;;;;3.33;1.25;;;7.00;99.90;;;;;;4966608;28;20058;-65
2023/01/09 00:37:50;;;;;;;2.88;1.60;;;7.10;99.90;;;;;;4935376;29;20043;-66
2023/01/09 00:40:16;;;;;;;3.10;1.65;;;7.10;99.90;;;;;;4950282;28;20050;-66
2023/01/09 00:42:45;;;;;;;3.22;1.65;;;7.20;99.90;;;;;;4935092;29;20039;-66
2023/01/09 00:45:15;;;;;;;3.42;1.60;;;7.20;99.90;;;;;;4966171;28;20109;-66
2023/01/09 00:47:49;;;;;;;4.35;1.63;;;7.20;99.90;;;;;;4953687;28;20043;-66
2023/01/09 00:50:19;;;;;;;3.10;1.80;;;7.20;99.90;;;;;;4950258;28;20043;-66
2023/01/09 00:52:45;;;;;;;2.78;1.58;;;7.30;99.90;;;;;;4951415;28;20047;-66
2023/01/09 00:55:11;;;;;;;2.85;1.77;;;7.30;99.90;;;;;;4934555;29;20114;-66
2023/01/09 00:57:37;;;;;;;3.25;1.75;;;7.30;99.90;;;;;;4919152;29;20075;-66
2023/01/09 01:00:03;;;;;;;2.33;1.50;;;7.40;99.90;;;;;;4933025;29;20043;-66
2023/01/09 01:02:28;;;;;;;3.42;1.58;;;7.40;99.90;;;;;;4935560;29;20125;-66
2023/01/09 01:07:39;;;;;;;5.40;1.90;;;7.40;99.90;;;;;;4977770;28;20562;-65
2023/01/09 01:10:16;;;;;;;3.85;1.70;;;7.40;99.90;;;;;;4948282;28;20130;-65
2023/01/09 01:12:42;;;;;;;2.78;1.52;;;7.50;99.90;;;;;;4935173;29;20050;-66
2023/01/09 01:15:09;;;;;;;4.05;1.70;;;7.50;99.90;;;;;;4951755;28;20178;-65
2023/01/09 01:17:36;;;;;;;2.17;1.55;;;7.60;99.90;;;;;;4920406;29;20377;-66
2023/01/09 01:20:03;;;;;;;2.83;1.70;;;7.70;99.90;;;;;;4950257;28;20474;-66
2023/01/09 01:22:29;;;;;;;3.30;1.70;;;7.70;99.90;;;;;;4934851;29;20074;-66
2023/01/09 01:24:56;;;;;;;2.08;1.50;;;7.70;99.90;;;;;;4962076;28;20141;-66
2023/01/09 01:27:23;;;;;;;2.17;1.38;;;7.70;99.90;;;;;;4947289;28;20047;-66
2023/01/09 01:29:48;;;;;;;3.42;1.60;;;7.70;99.90;;;;;;4947892;28;20054;-67
2023/01/09 01:32:14;;;;;;;3.53;1.58;;;7.70;99.90;;;;;;4933530;29;20205;-66
2023/01/09 01:34:40;;;;;;;2.05;1.33;;;7.70;99.90;;;;;;4967326;28;20043;-66
2023/01/09 01:37:06;;;;;;;4.78;1.58;;;7.70;99.90;;;;;;4966189;28;20825;-67
2023/01/09 01:39:32;;;;;;;4.80;1.88;;;7.70;99.90;;;;;;4949817;28;20098;-66
2023/01/09 01:41:58;;;;;;;3.22;1.48;;;7.80;99.90;;;;;;4950873;28;20674;-66
2023/01/09 01:45:03;;;;;;;3.10;1.92;;;7.80;99.90;;;;;;4949567;28;20053;-66
2023/01/09 01:47:40;;;;;;;2.80;1.50;;;7.70;99.90;;;;;;4978232;28;20134;-65
2023/01/09 01:50:18;;;;;;;2.35;1.65;;;7.80;99.90;;;;;;4948901;28;20047;-66
2023/01/09 01:52:46;;;;;;;2.85;1.80;;;7.80;99.90;;;;;;4950271;28;20055;-65
2023/01/09 01:55:11;;;;;;;3.53;1.90;;;7.70;99.90;;;;;;4950178;28;20122;-65
2023/01/09 01:57:40;;;;;;;3.38;2.00;;;7.80;99.90;;;;;;4966094;28;20055;-66
2023/01/09 02:00:06;;;;;;;;;;;7.70;99.90;;;;;;4933683;28;20469;-66
2023/01/09 02:02:31;;;;;;;2.42;1.70;;;7.80;99.90;;;;;;4949304;28;19929;-66
2023/01/09 02:04:58;;;;;;;4.32;2.20;;;7.80;99.90;;;;;;4949864;28;20070;-66
2023/01/09 02:07:24;;;;;;;2.83;1.88;;;7.70;99.90;;;;;;4934204;29;20058;-65
2023/01/09 02:09:50;;;;;;;2.90;1.75;;;7.70;99.90;;;;;;4934177;29;20047;-66
2023/01/09 02:12:24;;;;;;;4.38;2.10;;;7.80;99.90;;;;;;4949687;28;20051;-66
2023/01/09 02:15:10;;;;;;;3.10;2.10;;;7.80;99.90;;;;;;4934328;29;20050;-65
2023/01/09 02:18:20;;;;;;;3.35;1.70;;;7.70;99.90;;;;;;4948444;29;20054;-66
2023/01/09 02:20:59;;;;;;;4.07;1.92;;;7.80;99.90;;;;;;4932595;29;20109;-66
2023/01/09 02:23:57;;;;;;;3.00;1.67;;;7.80;99.90;;;;;;4966229;28;20056;-66
2023/01/09 02:26:51;;;;;;;3.55;2.05;;;7.80;99.90;;;;;;4935637;29;20047;-66
2023/01/09 02:30:02;;;;;;;2.92;1.88;;;7.80;99.90;;;;;;4949802;28;20062;-67
2023/01/09 02:32:36;;;;;;;3.63;2.08;;;7.70;99.90;;;;;;4944229;29;20059;-67
2023/01/09 02:35:12;;;;;;;4.32;2.45;;;7.80;99.90;;;;;;4950213;29;20485;-66
2023/01/09 02:37:38;;;;;;;2.92;1.90;;;7.60;99.90;;;;;;4949088;29;20051;-66
2023/01/09 02:40:07;;;;;;;5.28;2.33;;;7.60;99.90;;;;;;4950244;28;20058;-65
2023/01/09 02:42:33;;;;;;;4.68;2.40;;;7.60;99.90;;;;;;4965498;28;20051;-66
2023/01/09 02:44:59;;;;;;;5.20;2.22;;;7.60;99.90;;;;;;4942813;28;20377;-66
2023/01/09 02:47:28;;;;;;;3.92;2.13;;;7.50;99.90;;;;;;4931346;29;20377;-66
2023/01/09 02:50:04;;;;;;;3.50;2.28;;;7.50;99.90;;;;;;4946280;29;20126;-65
2023/01/09 02:52:46;;;;;;;3.55;2.60;;;7.50;99.90;;;;;;4918496;29;20043;-65
2023/01/09 02:55:37;;;;;;;3.97;2.63;;;7.60;99.90;;;;;;4957589;28;20035;-65
2023/01/09 02:58:45;;;;;;;5.47;2.53;;;7.60;99.90;;;;;;4951976;28;20047;-65
2023/01/09 03:01:20;;;;;;;7.05;3.00;;;7.60;99.90;;;;;;4952922;29;20142;-64
2023/01/09 03:03:47;;;;;;;4.78;3.20;;;7.60;99.90;;;;;;4969478;28;20055;-66
2023/01/09 03:06:21;;;;;;;5.13;2.90;;;7.60;99.90;;;;;;4952001;28;20161;-65
2023/01/09 03:08:53;;;;;;;4.35;2.75;;;7.60;99.90;;;;;;4952931;29;20075;-65
2023/01/09 03:11:20;;;;;;;4.15;3.10;;;7.60;99.90;;;;;;4936774;29;20066;-65
2023/01/09 03:13:54;;;;;;;5.20;2.90;;;7.60;99.90;;;;;;4937039;29;20086;-67
2023/01/09 03:16:25;;;;;;;4.97;2.50;;;7.50;99.90;;;;;;4952611;29;20512;-65
2023/01/09 03:18:51;;;;;;;5.97;3.00;;;7.50;99.90;;;;;;4934763;29;20063;-65
2023/01/09 03:21:17;;;;;;;8.07;2.90;;;7.50;99.90;;;;;;4953303;29;20448;-65
2023/01/09 03:23:49;;;;;;;5.50;3.50;;;7.50;99.90;;;;;;4953292;28;20513;-68
2023/01/09 03:26:16;;;;;;;7.53;3.08;;;7.50;99.90;;;;;;4953100;29;20078;-65
2023/01/09 03:28:42;;;;;;;6.30;3.63;;;7.50;99.90;;;;;;4935092;29;20058;-67
2023/01/09 03:31:07;;;;;;;4.40;3.22;;;7.50;99.90;;;;;;4951939;28;20118;-66
2023/01/09 03:33:33;;;;;;;4.75;3.22;;;7.40;99.90;;;;;;4951912;29;20051;-66
2023/01/09 03:36:02;;;;;;;4.75;2.95;;;7.50;99.90;;;;;;4936605;29;20465;-68
2023/01/09 03:38:28;;;;;;;5.80;3.20;;;7.50;99.90;;;;;;4938913;29;20040;-67
2023/01/09 03:40:53;;;;;;;5.18;3.33;;;7.40;99.90;;;;;;4936853;29;20153;-66
2023/01/09 03:43:19;;;;;;;5.93;3.40;;;7.50;99.90;;;;;;4965174;28;20047;-66
2023/01/09 03:45:46;;;;;;;4.53;3.10;;;7.40;99.90;;;;;;4950687;29;20183;-66
2023/01/09 03:48:12;;;;;;;6.05;3.22;;;7.40;99.90;;;;;;4935815;29;20074;-66
2023/01/09 03:50:41;;;;;;;6.68;3.08;;;7.40;99.90;;;;;;4919720;29;20397;-66
2023/01/09 03:53:07;;;;;;;5.28;3.25;;;7.40;99.90;;;;;;4951551;28;20043;-65
2023/01/09 03:55:33;;;;;;;4.07;2.75;;;7.40;99.90;;;;;;4935976;29;20495;-65
2023/01/09 03:57:58;;;;;;;4.40;3.25;;;7.40;99.90;;;;;;4951916;28;20057;-65
2023/01/09 04:00:24;;;;;;;5.07;3.28;;;7.40;99.90;;;;;;4950947;29;20047;-66
2023/01/09 04:02:50;;;;;;;5.40;3.78;;;7.40;99.90;;;;;;4932662;29;20058;-66
2023/01/09 04:05:16;;;;;;;5.32;3.95;;;7.40;99.90;;;;;;4951817;29;20055;-66
2023/01/09 04:07:42;;;;;;;6.25;3.33;;;7.30;99.90;;;;;;4950940;28;20058;-65
2023/01/09 04:10:08;;;;;;;6.03;3.35;;;7.40;99.90;;;;;;4950525;28;20057;-65
2023/01/09 04:12:34;;;;;;;5.30;3.53;;;7.40;99.90;;;;;;4948759;28;20074;-66
2023/01/09 04:14:59;;;;;;;7.28;3.55;;;7.40;99.90;;;;;;4949270;28;20137;-65
2023/01/09 04:17:25;;;;;;;4.80;3.25;;;7.40;99.90;;;;;;4950908;29;20449;-65
2023/01/09 04:19:51;;;;;;;4.40;3.17;;;7.40;99.90;;;;;;4950629;28;20054;-66
2023/01/09 04:22:16;;;;;;;7.68;3.88;;;7.40;99.90;;;;;;4967595;28;20048;-65
2023/01/09 04:24:42;;;;;;;6.35;3.80;;;7.30;99.90;;;;;;4966828;28;20111;-65
2023/01/09 04:27:08;;;;;;;5.57;3.45;;;7.30;99.90;;;;;;4951198;29;20055;-65
2023/01/09 04:29:34;;;;;;;4.55;3.28;;;7.30;99.90;;;;;;4951068;29;20065;-66
2023/01/09 04:32:03;;;;;;;4.60;3.30;;;7.30;99.90;;;;;;4966184;28;20472;-65
2023/01/09 04:34:28;;;;;;;5.35;3.00;;;7.40;99.90;;;;;;4951062;28;20397;-65
2023/01/09 04:36:55;;;;;;;5.47;3.67;;;7.40;99.90;;;;;;4966728;28;20079;-65
2023/01/09 04:39:21;;;;;;;4.82;3.20;;;7.40;99.90;;;;;;4966706;28;20085;-65
2023/01/09 04:41:49;;;;;;;5.35;3.00;;;7.40;99.90;;;;;;4949536;29;20608;-65
2023/01/09 04:44:25;;;;;;;5.32;3.22;;;7.40;99.90;;;;;;4950293;29;20437;-65
2023/01/09 04:46:53;;;;;;;4.38;2.80;;;7.40;99.90;;;;;;4965452;28;20065;-65
2023/01/09 04:49:19;;;;;;;5.38;2.95;;;7.50;99.90;;;;;;4949638;29;20043;-66
2023/01/09 04:51:46;;;;;;;5.20;3.33;;;7.40;99.90;;;;;;4950132;29;20058;-66
2023/01/09 04:54:11;;;;;;;4.40;3.10;;;7.40;99.90;;;;;;4951167;28;20062;-66
2023/01/09 04:56:37;;;;;;;8.15;3.42;;;7.30;99.90;;;;;;4981622;28;20074;-66
2023/01/09 04:59:04;;;;;;;5.45;3.15;;;7.30;99.90;;;;;;4966297;28;20047;-66
2023/01/09 05:01:29;;;;;;;4.78;3.10;;;7.40;99.90;;;;;;4949629;29;20070;-66
2023/01/09 05:03:55;;;;;;;5.75;3.10;;;7.40;99.90;;;;;;4934335;28;20662;-67
2023/01/09 05:06:21;;;;;;;5.65;2.97;;;7.40;99.90;;;;;;4949785;29;20061;-67
2023/01/09 05:08:47;;;;;;;6.20;3.08;;;7.30;99.90;;;;;;4951316;28;20051;-65
2023/01/09 05:11:12;;;;;;;5.47;3.10;;;7.40;99.90;;;;;;4950477;29;20134;-66
2023/01/09 05:13:38;;;;;;;4.13;3.00;;;7.40;99.90;;;;;;4933175;28;20110;-65
2023/01/09 05:16:04;;;;;;;6.25;3.58;;;7.40;99.90;;;;;;4982632;28;20043;-66
2023/01/09 05:18:30;;;;;;;4.90;3.00;;;7.40;99.90;;;;;;4949330;28;20070;-65
2023/01/09 05:20:55;;;;;;;7.05;4.07;;;7.40;99.90;;;;;;4933304;28;20047;-66
2023/01/09 05:23:21;;;;;;;5.78;4.15;;;7.30;99.90;;;;;;4949378;28;20062;-65
2023/01/09 05:25:47;;;;;;;6.55;4.30;;;7.20;99.90;;;;;;4966448;28;20047;-66
2023/01/09 05:28:14;;;;;;;7.00;4.70;;;7.20;99.90;;;;;;4950008;28;20111;-65
2023/01/09 05:30:40;;;;;;;7.47;4.80;;;7.10;99.90;;;;;;4933031;29;20161;-65
2023/01/09 05:33:06;;;;;;;7.35;5.13;;;7.10;99.90;;;;;;4965448;28;20126;-65
2023/01/09 05:35:31;;;;;;;8.27;5.90;;;7.10;99.90;;;;;;4934193;29;20047;-65
2023/01/09 05:37:57;;;;;;;7.65;5.20;;;7.00;99.90;;;;;;4917929;29;20051;-65
2023/01/09 05:40:23;;;;;;;7.63;5.53;;;7.00;99.90;;;;;;4949654;29;20481;-66
2023/01/09 05:42:49;;;;;;;8.43;5.65;;;7.00;99.90;;;;;;4980867;28;20051;-65
2023/01/09 05:45:15;;;;;;;7.40;5.55;;;6.90;99.90;;;;;;4981637;28;20039;-67
2023/01/09 05:47:43;;;;;;;6.07;4.65;;;6.90;99.90;;;;;;4933609;29;20130;-65
2023/01/09 05:50:10;;;;;;;7.57;5.57;;;6.90;99.90;;;;;;4933754;29;20358;-67
2023/01/09 05:52:35;;;;;;;7.22;5.43;;;6.90;99.90;;;;;;4950064;28;20485;-66
2023/01/09 05:55:01;;;;;;;7.38;5.60;;;6.90;99.90;;;;;;4950013;29;20055;-66
2023/01/09 05:57:27;;;;;;;9.20;5.90;;;6.90;99.90;;;;;;4931692;29;20043;-66
2023/01/09 05:59:53;;;;;;;9.48;6.13;;;7.00;99.90;;;;;;4981563;28;20055;-66
2023/01/09 06:02:19;;;;;;;8.30;5.43;;;7.00;99.90;;;;;;4948568;29;20062;-66
2023/01/09 06:04:45;;;;;;;9.10;6.40;;;6.90;99.90;;;;;;4917879;29;20077;-66
2023/01/09 06:07:11;;;;;;;8.85;5.93;;;7.00;99.90;;;;;;4948954;28;20050;-66
2023/01/09 06:09:36;;;;;;;7.18;5.47;;;7.00;99.90;;;;;;4950153;28;20537;-65
2023/01/09 06:12:02;;;;;;;6.68;4.65;;;7.00;99.90;;;;;;4935706;29;20051;-64
2023/01/09 06:14:28;;;;;;;6.22;4.20;;;7.10;99.90;;;;;;4950109;28;20039;-65
2023/01/09 06:16:54;;;;;;;6.07;4.80;;;7.10;99.90;;;;;;4933221;29;20335;-65
2023/01/09 06:19:20;;;;;;;5.80;4.35;;;7.10;99.90;;;;;;4949342;29;20047;-66
2023/01/09 06:21:46;;;;;;;6.07;4.85;;;7.10;99.90;;;;;;4933940;29;20532;-66
2023/01/09 06:24:11;;;;;;;6.40;4.70;;;7.10;99.90;;;;;;4949519;29;20533;-66
2023/01/09 06:26:38;;;;;;;8.23;4.90;;;7.20;99.90;;;;;;4948810;29;20047;-66
2023/01/09 06:29:04;;;;;;;6.32;4.78;;;7.10;99.90;;;;;;4949596;28;20513;-66
2023/01/09 06:31:31;;;;;;;7.38;4.53;;;7.00;99.90;;;;;;4949265;28;20043;-67
2023/01/09 06:33:57;;;;;;;6.57;4.40;;;7.00;99.90;;;;;;4951793;28;20047;-67
2023/01/09 06:36:22;;;;;;;5.55;3.38;;;7.10;99.90;;;;;;4969806;28;20043;-66
2023/01/09 06:38:48;;;;;;;5.28;3.38;;;7.10;99.90;;;;;;4953744;28;20052;-65
2023/01/09 06:41:15;;;;;;;4.03;2.53;;;7.20;99.90;;;;;;4968956;28;20130;-65
2023/01/09 06:43:41;;;;;;;3.55;2.42;;;7.10;99.90;;;;;;4937533;29;20054;-67
2023/01/09 06:46:08;;;;;;;4.97;2.50;;;7.20;99.90;;;;;;4963884;28;20054;-65
2023/01/09 06:48:34;;;;;;;4.28;2.30;;;7.20;99.90;;;;;;4953949;28;20489;-67
2023/01/09 06:50:59;;;;;;;4.22;2.42;;;7.30;99.90;;;;;;4952608;29;20051;-65
2023/01/09 06:53:25;;;;;;;2.70;2.00;;;7.20;99.90;;;;;;4953062;29;20039;-65
2023/01/09 06:55:51;;;;;;;4.32;2.08;;;7.30;99.90;;;;;;4950014;28;20051;-64
2023/01/09 06:58:17;;;;;;;5.88;3.10;;;7.30;99.90;;;;;;4950913;28;20048;-64
2023/01/09 07:00:44;;;;;;;5.13;2.25;;;7.30;99.90;;;;;;4911740;29;20102;-66
2023/01/09 07:03:10;;;;;;;5.30;2.40;;;7.30;99.90;;;;;;4936261;28;20066;-65
2023/01/09 07:05:41;;;;;;;6.22;3.88;;;7.30;99.90;;;;;;4957483;28;20489;-64
2023/01/09 07:08:07;;;;;;;5.25;2.30;;;7.40;99.90;;;;;;4949235;28;20054;-64
2023/01/09 07:10:33;;;;;;;4.32;2.80;;;7.30;99.90;;;;;;4929946;28;20506;-65
2023/01/09 07:12:59;;;;;;;4.20;2.45;;;7.40;99.90;;;;;;4942532;29;20683;-64
2023/01/09 07:15:25;;;;;;;5.20;2.20;;;7.40;99.90;;;;;;4952070;29;20750;-64
2023/01/09 07:17:51;;;;;;;5.82;2.58;;;7.40;99.90;;;;;;4953101;28;20118;-65
2023/01/09 07:20:17;;;;;;;5.68;3.22;;;7.40;99.90;;;;;;4936972;29;20046;-64
2023/01/09 07:22:43;;;;;;;3.90;2.58;;;7.30;99.90;;;;;;4945532;28;20038;-69
2023/01/09 07:25:09;;;;;;;7.35;2.75;;;7.40;99.90;;;;;;4935507;29;20051;-70
2023/01/09 07:27:35;;;;;;;7.95;3.40;;;8.10;99.90;;;;;;4935922;29;20504;-69
2023/01/09 07:30:01;;;;;;;6.05;2.97;;;8.00;99.90;;;;;;4920113;29;20133;-65
2023/01/09 07:32:27;;;;;;;5.82;2.97;;;8.00;99.90;;;;;;4935372;29;20062;-64
2023/01/09 07:34:57;;;;;;;5.10;3.03;;;7.60;99.90;;;;;;4935135;29;20055;-64
2023/01/09 07:37:23;;;;;;;4.75;2.80;;;7.50;99.90;;;;;;4949439;28;20510;-64
2023/01/09 07:39:49;;;;;;;5.75;2.55;;;7.40;99.90;;;;;;4951129;29;20083;-65
2023/01/09 07:42:14;;;;;;;4.10;2.72;;;7.30;99.90;;;;;;4934934;29;20149;-65
2023/01/09 07:44:40;;;;;;;6.50;2.78;;;7.30;99.90;;;;;;4935004;28;20130;-64
2023/01/09 07:47:06;;;;;;;8.30;3.45;;;7.20;99.90;;;;;;4950876;29;20099;-68
2023/01/09 07:49:32;;;;;;;6.68;3.22;;;7.20;99.90;;;;;;4950462;29;20081;-68
2023/01/09 07:51:58;;;;;;;7.18;3.22;;;7.10;99.90;;;;;;4950961;29;20473;-68
2023/01/09 07:54:23;;;;;;;7.13;3.40;;;7.10;99.90;;;;;;4951497;28;20047;-68
2023/01/09 07:56:49;;;;;;;5.97;3.28;;;7.10;99.90;;;;;;4951817;28;20056;-69
2023/01/09 07:59:15;;;;;;;8.15;3.20;;;7.00;99.90;;;;;;4953338;29;20043;-68
2023/01/09 08:01:40;;;;;;;6.53;3.33;;;7.00;99.90;;;;;;4950751;29;20142;-67
2023/01/09 08:04:06;;;;;;;7.35;3.50;;;7.00;99.90;;;;;;4951598;28;20058;-68
2023/01/09 08:06:32;;;;;;;5.50;3.30;;;6.90;99.90;;;;;;4932673;29;20216;-67
2023/01/09 08:08:58;;;;;;;11.65;4.85;;;6.90;99.90;;;;;;4949470;29;20078;-67
2023/01/09 08:11:24;;;;;;;7.93;4.90;;;6.90;99.90;;;;;;4951211;28;20489;-67
2023/01/09 08:13:50;;;;;;;7.32;3.47;;;6.80;99.90;;;;;;4935567;29;20466;-67
2023/01/09 08:16:16;;;;;;;6.00;4.20;;;6.80;99.90;;;;;;4919489;29;20062;-67
2023/01/09 08:18:41;;;;;;;9.68;3.80;;;6.80;99.90;;;;;;4951422;29;20051;-68
2023/01/09 08:21:08;;;;;;;9.38;4.30;;;6.80;99.90;;;;;;4951120;29;20051;-67
2023/01/09 08:23:33;;;;;;;5.95;4.03;;;6.80;99.90;;;;;;4950763;28;20047;-68
2023/01/09 08:25:59;;;;;;;5.93;4.07;;;6.80;99.90;;;;;;4935197;28;20055;-67
2023/01/09 08:28:25;;;;;;;9.10;4.05;;;6.70;99.90;;;;;;4966218;28;20057;-67
2023/01/09 08:30:51;;;;;;;9.40;4.30;;;6.70;99.90;;;;;;4951107;29;20063;-68
2023/01/09 08:33:16;;;;;;;9.27;3.92;;;6.70;99.90;;;;;;4966949;28;20054;-70
2023/01/09 08:35:43;;;;;;;8.30;3.70;;;6.70;99.90;;;;;;4951182;28;20051;-68
2023/01/09 08:38:09;;;;;;;8.57;3.92;;;6.70;99.90;;;;;;4951184;28;20101;-69
2023/01/09 08:40:35;;;;;;;9.63;4.18;;;6.70;99.90;;;;;;4966623;28;20073;-69
2023/01/09 08:48:29;;;;;;;9.20;4.22;;;6.70;99.90;;;;;;4938625;29;20039;-69
2023/01/09 08:50:55;;;;;;;7.35;4.35;;;6.80;99.90;;;;;;4963012;28;20043;-69
2023/01/09 08:53:21;;;;;;;10.02;4.30;;;6.70;99.90;;;;;;4935123;29;20548;-69
2023/01/09 08:55:50;;;;;;;11.93;4.70;;;6.80;99.90;;;;;;4919410;29;20102;-69
2023/01/09 08:58:16;;;;;;;7.82;4.00;;;6.80;99.90;;;;;;4946879;29;20047;-68
2023/01/09 09:00:41;;;;;;;13.18;4.78;;;6.80;99.90;;;;;;4949009;28;20565;-69
2023/01/09 09:03:07;;;;;;;9.43;4.47;;;6.90;99.90;;;;;;4950062;29;20520;-69
2023/01/09 09:05:34;;;;;;;11.32;4.85;;;6.90;99.90;;;;;;4934392;29;20054;-69
2023/01/09 09:07:59;;;;;;;7.03;4.30;;;6.90;99.90;;;;;;4934320;28;20373;-68
2023/01/09 09:10:27;;;;;;;12.27;5.10;;;7.00;99.90;;;;;;4934572;28;20340;-64
2023/01/09 09:12:54;;;;;;;12.77;5.28;;;7.00;99.90;;;;;;4950428;28;20054;-64
2023/01/09 09:15:23;;;;;;;7.30;4.00;;;7.00;99.90;;;;;;4934565;28;20074;-64
2023/01/09 09:17:53;;;;;;;8.95;4.65;;;7.10;99.90;;;;;;4934496;29;20077;-64
2023/01/09 09:20:20;;;;;;;13.30;4.28;;;7.10;99.90;;;;;;4934127;29;20125;-64
2023/01/09 09:22:46;;;;;;;8.10;3.67;;;7.10;99.90;;;;;;4927632;29;20166;-64
2023/01/09 09:25:13;;;;;;;8.80;3.58;;;7.10;99.90;;;;;;4932440;29;20118;-64
2023/01/09 09:27:39;;;;;;;6.70;3.17;;;7.20;99.90;;;;;;4934437;29;20054;-64
2023/01/09 09:30:06;;;;;;;7.53;3.50;;;7.20;99.90;;;;;;4949438;28;20338;-64
2023/01/09 09:32:32;;;;;;;9.18;4.22;;;7.20;99.90;;;;;;4967125;28;20063;-62
2023/01/09 09:34:57;;;;;;;8.23;3.67;;;7.30;99.90;;;;;;4937177;29;20050;-62
2023/01/09 09:37:23;;;;;;;13.85;4.82;;;7.40;99.90;;;;;;4951990;28;20051;-62
2023/01/09 09:39:49;;;;;;;28.70;11.35;;;7.50;99.90;;;;;;4936091;29;20134;-63
2023/01/09 09:45:06;;;;;;;7.30;4.33;;;7.60;99.90;;;;;;4951658;29;20438;-62
2023/01/09 09:47:40;;;;;;;5.72;2.53;;;7.70;99.90;;;;;;4949991;28;20500;-62
2023/01/09 09:50:24;;;;;;;5.07;2.30;;;7.80;99.90;;;;;;4949738;28;20122;-63
2023/01/09 09:53:20;;;;;;;5.97;2.55;;;7.90;99.90;;;;;;4950449;29;20058;-62
2023/01/09 09:55:47;;;;;;;7.35;2.17;;;7.80;99.90;;;;;;4956034;28;20067;-62
2023/01/09 09:58:25;;;;;;;7.22;2.30;;;8.00;99.90;;;;;;4949959;29;20051;-62
2023/01/09 10:00:50;;;;;;;7.53;2.42;;;7.80;99.90;;;;;;4929132;29;20214;-62
2023/01/09 10:03:25;;;;;;;4.40;1.85;;;7.80;99.90;;;;;;4933857;29;20051;-62
2023/01/09 10:05:51;;;;;;;6.35;2.03;;;7.90;99.90;;;;;;4950230;29;20074;-62
2023/01/09 10:08:34;;;;;;;5.75;1.70;;;8.10;99.90;;;;;;4950374;28;20477;-63
2023/01/09 10:11:00;;;;;;;5.53;2.10;;;8.20;99.90;;;;;;4953748;28;20058;-63
2023/01/09 10:16:27;;;;;;;8.10;1.75;;;8.50;99.90;;;;;;4953905;28;20051;-65
2023/01/09 10:19:44;;;;;;;5.97;2.20;;;8.60;99.90;;;;;;4953959;29;20043;-65
2023/01/09 10:22:29;;;;;;;5.73;1.70;;;8.70;99.90;;;;;;4938065;29;20058;-63
2023/01/09 10:25:14;;;;;;;4.82;1.27;;;8.30;99.90;;;;;;4951521;29;20358;-63
2023/01/09 10:28:20;;;;;;;5.35;1.63;;;8.40;99.90;;;;;;4954267;29;20043;-62
2023/01/09 10:30:50;;;;;;;5.43;1.42;;;8.20;99.90;;;;;;4951488;29;20102;-64
2023/01/09 10:33:36;;;;;;;7.13;1.50;;;8.30;99.90;;;;;;4953182;28;20814;-63
2023/01/09 10:36:21;;;;;;;2.30;1.05;;;8.60;99.90;;;;;;4953217;28;20429;-63
2023/01/09 10:38:49;;;;;;;3.45;1.25;;;8.50;99.90;;;;;;4953119;29;20050;-64
2023/01/09 10:41:37;;;;;;;5.25;1.50;;;8.40;99.90;;;;;;4937764;29;20053;-64
2023/01/09 10:44:20;;;;;;;3.17;1.23;;;8.20;99.90;;;;;;4939243;29;20637;-64
2023/01/09 10:46:53;;;;;;;5.32;1.70;;;8.20;99.90;;;;;;4937770;29;20047;-63
2023/01/09 10:49:19;;;;;;;4.35;1.27;;;8.30;99.90;;;;;;4937911;29;20051;-64
2023/01/09 10:52:04;;;;;;;5.50;1.40;;;8.30;99.90;;;;;;4951755;29;20051;-64
2023/01/09 10:54:30;;;;;;;4.43;1.50;;;8.30;99.90;;;;;;4954166;29;20054;-64
2023/01/09 10:57:39;;;;;;;4.13;1.20;;;8.30;99.90;;;;;;4953347;28;20480;-63
2023/01/09 11:00:05;;;;;;;4.43;1.40;;;8.20;99.90;;;;;;4943708;29;20143;-63
2023/01/09 11:02:33;;;;;;;7.25;1.95;;;8.20;99.90;;;;;;4951863;28;20118;-64
2023/01/09 11:04:59;;;;;;;5.30;1.42;;;8.20;99.90;;;;;;4933099;29;20053;-63
2023/01/09 11:07:33;;;;;;;6.07;1.42;;;8.30;99.90;;;;;;4967209;28;20043;-63
2023/01/09 11:10:06;;;;;;;4.90;1.02;;;10.70;99.90;;;;;;4951191;28;20048;-64
2023/01/09 11:12:32;;;;;;;4.60;1.20;;;12.40;99.90;;;;;;4951895;28;20055;-64
2023/01/09 11:15:27;;;;;;;3.70;1.52;;;10.10;99.90;;;;;;4937047;29;20643;-64
2023/01/09 11:17:54;;;;;;;4.32;1.30;;;10.80;99.90;;;;;;4966989;28;20082;-63
2023/01/09 11:20:24;;;;;;;4.35;1.10;;;9.70;99.90;;;;;;4934161;29;20058;-62
2023/01/09 11:22:55;;;;;;;7.10;1.27;;;11.10;99.90;;;;;;4935283;29;20039;-63
2023/01/09 11:25:22;;;;;;;3.85;1.00;;;12.90;99.90;;;;;;4947566;29;20556;-63
2023/01/09 11:28:05;;;;;;;3.15;1.10;;;13.30;97.80;;;;;;4965660;28;20081;-63
2023/01/09 11:30:36;;;;;;;6.35;1.48;;;14.10;95.30;;;;;;4935274;29;20047;-64
2023/01/09 11:33:23;;;;;;;4.47;1.20;;;12.80;97.30;;;;;;4935702;29;20057;-62
2023/01/09 11:35:53;;;;;;;5.95;0.93;;;12.90;99.90;;;;;;4935299;28;20073;-63
2023/01/09 11:38:19;;;;;;;2.70;0.82;;;11.20;99.90;;;;;;4948726;29;20126;-62
2023/01/09 11:40:56;;;;;;;4.60;1.25;;;9.50;99.90;;;;;;4951779;28;20476;-63
2023/01/09 11:43:42;;;;;;;3.53;0.95;;;9.30;99.90;;;;;;4933325;29;20055;-62
2023/01/09 11:46:10;;;;;;;3.28;1.15;;;8.90;99.90;;;;;;4935073;29;20043;-62
2023/01/09 11:48:58;;;;;;;3.03;1.20;;;8.80;99.90;;;;;;4948156;28;20039;-61
2023/01/09 11:51:25;;;;;;;4.38;1.33;;;8.60;99.90;;;;;;4950148;28;20207;-62
2023/01/09 11:53:54;;;;;;;5.85;1.30;;;8.60;99.90;;;;;;4947742;28;20078;-64
2023/01/09 11:56:20;;;;;;;3.95;1.17;;;8.60;99.90;;;;;;4951603;28;20038;-64
2023/01/09 11:58:46;;;;;;;2.80;1.13;;;8.60;99.90;;;;;;4949955;28;20452;-62
2023/01/09 12:01:24;;;;;;;3.63;0.93;;;8.60;99.90;;;;;;4908405;28;1246641;-62
2023/01/09 12:04:19;;;;;;;2.72;0.95;;;8.50;99.90;;;;;;4952639;29;20047;-63
2023/01/09 12:07:05;;;;;;;4.85;1.10;;;8.50;99.90;;;;;;4942332;28;20520;-63
2023/01/09 12:09:53;;;;;;;6.40;1.20;;;8.50;99.90;;;;;;4967511;28;20055;-62
2023/01/09 12:12:28;;;;;;;3.40;1.00;;;8.50;99.90;;;;;;4951139;29;20134;-63
2023/01/09 12:15:28;;;;;;;4.40;0.73;;;8.50;99.90;;;;;;4950727;29;20054;-63
2023/01/09 12:18:03;;;;;;;3.05;1.02;;;8.50;99.90;;;;;;4951046;29;20050;-62
2023/01/09 12:20:47;;;;;;;1.73;0.50;;;8.50;99.90;;;;;;4961638;28;20047;-63
2023/01/09 12:23:39;;;;;;;2.50;0.73;;;8.50;99.90;;;;;;4949595;29;20047;-63
2023/01/09 12:26:50;;;;;;;3.70;1.05;;;8.50;99.90;;;;;;4981842;28;20070;-62
2023/01/09 12:29:53;;;;;;;1.65;0.65;;;8.60;99.90;;;;;;4947199;28;20154;-64
2023/01/09 12:32:25;;;;;;;1.73;0.65;;;8.50;99.90;;;;;;4946578;28;20073;-62
2023/01/09 12:35:06;;;;;;;4.65;0.93;;;8.60;99.90;;;;;;4951510;29;20115;-63
2023/01/09 12:37:51;;;;;;;6.35;1.00;;;8.60;99.90;;;;;;4945332;29;20411;-63
2023/01/09 12:40:19;;;;;;;3.42;1.10;;;8.60;99.90;;;;;;4950374;29;20549;-63
2023/01/09 12:43:04;;;;;;;;;;;8.60;99.90;;;;;;4952216;29;20053;-63
2023/01/09 12:45:51;;;;;;;1.55;0.68;;;8.60;99.90;;;;;;4982835;28;19925;-63
2023/01/09 12:48:49;;;;;;;2.27;0.60;;;8.60;99.90;;;;;;4944714;29;20043;-63
2023/01/09 12:51:39;;;;;;;3.83;1.02;;;8.70;99.90;;;;;;4955051;28;20477;-63
2023/01/09 12:54:09;;;;;;;3.00;1.08;;;8.70;99.90;;;;;;4947341;29;20051;-62
2023/01/09 12:57:03;;;;;;;3.10;0.90;;;8.70;99.90;;;;;;4950987;28;20049;-64
2023/01/09 12:59:42;;;;;;;4.10;1.13;;;8.70;99.90;;;;;;4936963;29;20129;-63
2023/01/09 13:02:14;;;;;;;3.35;1.20;;;8.80;99.90;;;;;;4930704;29;20440;-63
2023/01/09 13:04:44;;;;;;;3.17;1.05;;;8.80;99.90;;;;;;4951172;29;20185;-63
2023/01/09 13:07:16;;;;;;;2.45;0.93;;;8.70;99.90;;;;;;4935211;29;20374;-63
2023/01/09 13:10:14;;;;;;;5.03;1.88;;;8.70;99.90;;;;;;4934580;29;20517;-63
2023/01/09 13:12:39;;;;;;;4.75;1.17;;;8.70;99.90;;;;;;4943932;29;20439;-63
2023/01/09 13:15:17;;;;;;;3.55;1.15;;;8.70;99.90;;;;;;4933659;28;20187;-62
2023/01/09 13:17:46;;;;;;;3.10;1.20;;;8.70;99.90;;;;;;4951302;28;20047;-62
2023/01/09 13:20:22;;;;;;;4.93;1.20;;;8.70;99.90;;;;;;4950228;29;20054;-63
2023/01/09 13:22:51;;;;;;;5.72;1.30;;;8.80;99.90;;;;;;4949843;29;20090;-63
2023/01/09 13:25:33;;;;;;;3.10;1.00;;;8.90;99.90;;;;;;4913226;29;20062;-64
2023/01/09 13:28:01;;;;;;;6.13;1.40;;;8.90;99.90;;;;;;4966196;28;20134;-62
2023/01/09 13:30:30;;;;;;;;;;;8.90;99.90;;;;;;4950681;29;20373;-62